Time;durP1;ratioP1;P1;durP2;ratioP2;P2;SDS_P1;SDS_P2;PMS_P1;PMS_P2;Temp;Humidity;BMP_temperature;BMP_pressure;BME280_temperature;BME280_humidity;BME280_pressure;Samples;Min_cycle;Max_cycle;Signal;HPM_P1;HPM_P2
2021/05/23 00:00:37;;;;;;;3.05;1.90;;;12.60;99.90;;;;;;2062839;28;20034;-68
2021/05/23 00:01:37;;;;;;;3.75;1.70;;;12.60;99.90;;;;;;2063218;28;20038;-69
2021/05/23 00:02:38;;;;;;;2.15;1.67;;;12.60;99.90;;;;;;2062265;28;20026;-69
2021/05/23 00:03:39;;;;;;;2.15;1.42;;;12.60;99.90;;;;;;2063120;28;20042;-69
2021/05/23 00:04:39;;;;;;;3.10;1.60;;;12.60;99.90;;;;;;2062562;28;20116;-68
2021/05/23 00:05:41;;;;;;;2.75;1.75;;;12.60;99.90;;;;;;2070386;28;20505;-69
2021/05/23 00:06:42;;;;;;;2.53;1.90;;;12.60;99.90;;;;;;2069836;28;20026;-69
2021/05/23 00:07:54;;;;;;;2.67;1.42;;;12.60;99.90;;;;;;2063296;28;20049;-69
2021/05/23 00:08:54;;;;;;;2.95;2.05;;;12.60;99.90;;;;;;2062698;28;20482;-69
2021/05/23 00:09:55;;;;;;;2.15;1.63;;;12.60;99.90;;;;;;2063149;28;20402;-69
2021/05/23 00:11:00;;;;;;;5.68;1.67;;;12.50;99.90;;;;;;2062810;28;20462;-68
2021/05/23 00:12:01;;;;;;;3.95;1.60;;;12.60;99.90;;;;;;2070241;28;20026;-68
2021/05/23 00:13:06;;;;;;;5.05;2.03;;;12.60;99.90;;;;;;2069932;28;20645;-68
2021/05/23 00:14:07;;;;;;;2.22;1.63;;;12.60;99.90;;;;;;2063480;28;20037;-68
2021/05/23 00:15:09;;;;;;;6.07;2.17;;;12.60;99.90;;;;;;2062494;28;20042;-69
2021/05/23 00:16:15;;;;;;;2.13;1.80;;;12.60;99.90;;;;;;2062911;28;20502;-68
2021/05/23 00:17:16;;;;;;;4.00;1.95;;;12.60;99.90;;;;;;2062875;28;20029;-69
2021/05/23 00:18:17;;;;;;;2.92;1.88;;;12.60;99.90;;;;;;2063024;28;20413;-69
2021/05/23 00:19:18;;;;;;;3.05;1.60;;;12.60;99.90;;;;;;2062889;28;20034;-69
2021/05/23 00:20:19;;;;;;;2.53;1.73;;;12.60;99.90;;;;;;2063158;28;20047;-68
2021/05/23 00:21:21;;;;;;;3.28;1.40;;;12.60;99.90;;;;;;2062575;28;20041;-69
2021/05/23 00:22:22;;;;;;;3.92;1.80;;;12.60;99.90;;;;;;2062340;28;20394;-68
2021/05/23 00:23:23;;;;;;;4.82;1.60;;;12.60;99.90;;;;;;2062782;28;20034;-69
2021/05/23 00:24:26;;;;;;;1.90;1.48;;;12.50;99.90;;;;;;2062612;28;20048;-69
2021/05/23 00:25:28;;;;;;;3.47;1.48;;;12.50;99.90;;;;;;2063027;28;20311;-69
2021/05/23 00:26:29;;;;;;;1.52;1.40;;;12.50;99.90;;;;;;2062858;28;20018;-69
2021/05/23 00:27:30;;;;;;;2.72;1.30;;;12.50;99.90;;;;;;2062679;28;20037;-69
2021/05/23 00:28:31;;;;;;;3.97;1.90;;;12.50;99.90;;;;;;2062955;28;20037;-69
2021/05/23 00:29:32;;;;;;;2.45;1.60;;;12.50;99.90;;;;;;2062735;28;20219;-69
2021/05/23 00:30:33;;;;;;;3.22;1.70;;;12.50;99.90;;;;;;2062913;28;20049;-69
2021/05/23 00:31:34;;;;;;;3.88;1.40;;;12.50;99.90;;;;;;2062722;28;20037;-69
2021/05/23 00:32:37;;;;;;;2.00;1.42;;;12.50;99.90;;;;;;2062562;28;20175;-69
2021/05/23 00:33:38;;;;;;;1.88;1.30;;;12.50;99.90;;;;;;2063005;28;20471;-69
2021/05/23 00:34:39;;;;;;;2.72;1.40;;;12.50;99.90;;;;;;2062605;28;20026;-69
2021/05/23 00:35:40;;;;;;;2.17;1.30;;;12.50;99.90;;;;;;2062480;28;20023;-69
2021/05/23 00:36:40;;;;;;;1.90;1.30;;;12.50;99.90;;;;;;2063061;28;20069;-69
2021/05/23 00:37:41;;;;;;;2.60;1.27;;;12.50;99.90;;;;;;2062543;28;20038;-69
2021/05/23 00:38:44;;;;;;;1.38;1.00;;;12.50;99.90;;;;;;2062748;28;20026;-69
2021/05/23 00:39:47;;;;;;;3.65;1.52;;;12.40;99.90;;;;;;2062510;28;20029;-69
2021/05/23 00:40:47;;;;;;;3.47;1.30;;;12.40;99.90;;;;;;2062869;28;20022;-69
2021/05/23 00:41:48;;;;;;;2.63;1.60;;;12.40;99.90;;;;;;2062737;28;20394;-69
2021/05/23 00:42:49;;;;;;;2.40;1.75;;;12.40;99.90;;;;;;2062526;28;20365;-69
2021/05/23 00:43:50;;;;;;;3.25;1.88;;;12.30;99.90;;;;;;2062727;28;20092;-69
2021/05/23 00:44:50;;;;;;;2.40;1.42;;;12.40;99.90;;;;;;2064538;28;20032;-69
2021/05/23 00:45:52;;;;;;;2.88;1.50;;;12.30;99.90;;;;;;2063365;28;20482;-69
2021/05/23 00:46:52;;;;;;;3.75;1.80;;;12.40;99.90;;;;;;2063846;28;20502;-69
2021/05/23 00:47:53;;;;;;;2.15;1.55;;;12.30;99.90;;;;;;2063929;28;20426;-69
2021/05/23 00:48:54;;;;;;;1.60;1.50;;;12.30;99.90;;;;;;2064089;28;20485;-69
2021/05/23 00:49:54;;;;;;;2.08;1.85;;;12.40;99.90;;;;;;2064183;28;20026;-69
2021/05/23 00:50:55;;;;;;;2.63;1.73;;;12.30;99.90;;;;;;2063750;28;20041;-69
2021/05/23 00:51:56;;;;;;;6.63;1.75;;;12.40;99.90;;;;;;2063276;28;20026;-69
2021/05/23 00:52:59;;;;;;;3.97;1.88;;;12.30;99.90;;;;;;2064052;28;20022;-69
2021/05/23 00:53:59;;;;;;;3.90;2.30;;;12.40;99.90;;;;;;2063819;28;20044;-69
2021/05/23 00:55:01;;;;;;;2.50;1.83;;;12.30;99.90;;;;;;2063825;28;20022;-69
2021/05/23 00:56:02;;;;;;;1.90;1.67;;;12.30;99.90;;;;;;2064204;28;20619;-69
2021/05/23 00:57:03;;;;;;;2.15;1.70;;;12.30;99.90;;;;;;2064547;28;20121;-69
2021/05/23 00:58:05;;;;;;;3.28;1.70;;;12.30;99.90;;;;;;2064206;28;20018;-69
2021/05/23 00:59:05;;;;;;;5.50;2.25;;;12.30;99.90;;;;;;2064434;28;20130;-69
2021/05/23 01:00:29;;;;;;;3.72;2.15;;;12.30;99.90;;;;;;2064368;28;20030;-69
2021/05/23 01:01:45;;;;;;;3.35;1.80;;;12.40;99.90;;;;;;2063902;28;20097;-69
2021/05/23 01:02:48;;;;;;;2.28;1.80;;;12.30;99.90;;;;;;2063834;28;20042;-69
2021/05/23 01:03:49;;;;;;;2.97;1.63;;;12.30;99.90;;;;;;2064421;28;20161;-70
2021/05/23 01:04:49;;;;;;;4.13;1.83;;;12.30;99.90;;;;;;2063941;28;20035;-69
2021/05/23 01:05:50;;;;;;;4.32;1.98;;;12.30;99.90;;;;;;2064447;28;20190;-69
2021/05/23 01:06:51;;;;;;;2.47;1.60;;;12.30;99.90;;;;;;2063983;28;20026;-69
2021/05/23 01:07:51;;;;;;;2.60;1.40;;;12.30;99.90;;;;;;2064108;28;20031;-69
2021/05/23 01:08:53;;;;;;;2.13;1.73;;;12.30;99.90;;;;;;2064157;28;20034;-69
2021/05/23 01:09:54;;;;;;;3.70;1.52;;;12.30;99.90;;;;;;2064454;28;20084;-69
2021/05/23 01:11:01;;;;;;;4.45;1.73;;;12.30;99.90;;;;;;2063872;28;20038;-69
2021/05/23 01:12:21;;;;;;;3.17;1.50;;;12.30;99.90;;;;;;2064081;28;20429;-69
2021/05/23 01:13:46;;;;;;;2.88;1.88;;;12.30;99.90;;;;;;2063741;28;20041;-69
2021/05/23 01:14:57;;;;;;;1.70;1.60;;;12.30;99.90;;;;;;2063808;28;20538;-69
2021/05/23 01:15:57;;;;;;;4.22;1.88;;;12.30;99.90;;;;;;2056460;28;20078;-69
2021/05/23 01:16:59;;;;;;;3.13;1.75;;;12.20;99.90;;;;;;2064125;28;20018;-69
2021/05/23 01:18:08;;;;;;;3.30;1.55;;;12.30;99.90;;;;;;2064084;28;20497;-69
2021/05/23 01:19:33;;;;;;;2.33;1.20;;;12.30;99.90;;;;;;2064191;28;20068;-69
2021/05/23 01:20:56;;;;;;;3.10;1.70;;;12.20;99.90;;;;;;2064175;28;20254;-69
2021/05/23 01:22:11;;;;;;;2.63;1.40;;;12.20;99.90;;;;;;2056198;28;20459;-69
2021/05/23 01:23:31;;;;;;;1.98;1.40;;;12.20;99.90;;;;;;2062259;28;20031;-69
2021/05/23 01:24:38;;;;;;;2.50;1.67;;;12.20;99.90;;;;;;2064142;28;20077;-69
2021/05/23 01:25:41;;;;;;;2.40;1.33;;;12.20;99.90;;;;;;2064116;28;20058;-69
2021/05/23 01:26:47;;;;;;;3.05;1.63;;;12.20;99.90;;;;;;2064367;28;20018;-69
2021/05/23 01:27:51;;;;;;;2.05;1.20;;;12.20;99.90;;;;;;2064082;28;20034;-69
2021/05/23 01:28:58;;;;;;;3.03;1.50;;;12.20;99.90;;;;;;2064027;28;20034;-69
2021/05/23 01:29:59;;;;;;;2.95;1.60;;;12.20;99.90;;;;;;2064003;28;20034;-69
2021/05/23 01:31:00;;;;;;;2.70;1.60;;;12.20;99.90;;;;;;2063661;28;20525;-69
2021/05/23 01:32:01;;;;;;;3.30;1.67;;;12.30;99.90;;;;;;2064182;28;20477;-69
2021/05/23 01:33:06;;;;;;;3.70;1.70;;;12.30;99.90;;;;;;2063336;28;20030;-69
2021/05/23 01:34:09;;;;;;;2.58;1.65;;;12.30;99.90;;;;;;2063508;28;20038;-69
2021/05/23 01:35:17;;;;;;;4.40;2.10;;;12.30;99.90;;;;;;2063733;28;20018;-68
2021/05/23 01:36:18;;;;;;;3.08;1.70;;;12.30;99.90;;;;;;2064113;28;20101;-68
2021/05/23 01:37:23;;;;;;;2.78;1.67;;;12.30;99.90;;;;;;2063837;28;20081;-69
2021/05/23 01:38:25;;;;;;;5.05;2.13;;;12.30;99.90;;;;;;2064141;28;20022;-69
2021/05/23 01:39:26;;;;;;;5.45;1.73;;;12.30;99.90;;;;;;2062762;28;20537;-69
2021/05/23 01:40:29;;;;;;;3.42;2.05;;;12.30;99.90;;;;;;2064003;28;20389;-69
2021/05/23 01:41:30;;;;;;;6.47;2.47;;;12.30;99.90;;;;;;2063520;28;20031;-69
2021/05/23 01:42:31;;;;;;;3.58;2.20;;;12.20;99.90;;;;;;2063207;28;20084;-69
2021/05/23 01:43:33;;;;;;;3.58;2.28;;;12.20;99.90;;;;;;2063650;28;20033;-69
2021/05/23 01:44:34;;;;;;;4.53;2.42;;;12.20;99.90;;;;;;2063911;28;20512;-69
2021/05/23 01:45:36;;;;;;;2.25;1.92;;;12.20;99.90;;;;;;2063532;28;20086;-69
2021/05/23 01:46:38;;;;;;;2.60;2.25;;;12.20;99.90;;;;;;2063969;28;20038;-69
2021/05/23 01:47:39;;;;;;;2.97;2.60;;;12.20;99.90;;;;;;2063653;28;20033;-69
2021/05/23 01:48:40;;;;;;;2.75;2.45;;;12.20;99.90;;;;;;2063862;28;20493;-69
2021/05/23 01:49:41;;;;;;;4.30;2.67;;;12.20;99.90;;;;;;2071599;28;20394;-69
2021/05/23 01:50:41;;;;;;;2.40;2.20;;;12.20;99.90;;;;;;2063140;28;20386;-69
2021/05/23 01:51:42;;;;;;;3.40;2.45;;;12.20;99.90;;;;;;2063118;28;20522;-69
2021/05/23 01:52:51;;;;;;;3.58;2.65;;;12.20;99.90;;;;;;2063453;28;20470;-68
2021/05/23 01:53:51;;;;;;;5.28;2.72;;;12.20;99.90;;;;;;2063606;28;20034;-69
2021/05/23 01:54:52;;;;;;;5.18;2.90;;;12.20;99.90;;;;;;2063840;28;20105;-69
2021/05/23 01:55:53;;;;;;;3.88;2.88;;;12.20;99.90;;;;;;2063019;28;20053;-69
2021/05/23 01:56:53;;;;;;;4.55;3.35;;;12.20;99.90;;;;;;2063474;28;20533;-69
2021/05/23 01:57:55;;;;;;;4.03;3.05;;;12.20;99.90;;;;;;2063469;28;20030;-69
2021/05/23 01:58:55;;;;;;;5.57;2.90;;;12.20;99.90;;;;;;2063107;28;20027;-69
2021/05/23 01:59:56;;;;;;;2.55;2.35;;;12.30;99.90;;;;;;2063837;28;20026;-69
2021/05/23 02:00:57;;;;;;;3.42;3.13;;;12.30;99.90;;;;;;2064331;28;20030;-69
2021/05/23 02:01:57;;;;;;;6.00;3.90;;;12.30;99.90;;;;;;2065070;28;20026;-69
2021/05/23 02:02:59;;;;;;;6.70;3.75;;;12.30;99.90;;;;;;2064174;28;20470;-69
2021/05/23 02:04:01;;;;;;;5.35;4.10;;;12.30;99.90;;;;;;2065020;28;20022;-69
2021/05/23 02:05:03;;;;;;;4.15;3.80;;;12.30;99.90;;;;;;2064635;28;20049;-69
2021/05/23 02:06:04;;;;;;;4.88;4.07;;;12.20;99.90;;;;;;2065151;28;20022;-69
2021/05/23 02:07:05;;;;;;;5.05;4.53;;;12.20;99.90;;;;;;2064882;28;20011;-69
2021/05/23 02:08:07;;;;;;;6.50;4.05;;;12.20;99.90;;;;;;2065092;28;20033;-69
2021/05/23 02:09:08;;;;;;;6.18;4.10;;;12.20;99.90;;;;;;2064923;28;20030;-69
2021/05/23 02:10:11;;;;;;;3.45;3.25;;;12.20;99.90;;;;;;2064995;28;20030;-69
2021/05/23 02:11:13;;;;;;;5.20;4.57;;;12.20;99.90;;;;;;2064764;28;20054;-69
2021/05/23 02:12:13;;;;;;;4.80;4.25;;;12.20;99.90;;;;;;2064369;28;20018;-69
2021/05/23 02:13:15;;;;;;;4.93;4.07;;;12.20;99.90;;;;;;2064890;28;20081;-69
2021/05/23 02:14:15;;;;;;;4.63;4.20;;;12.20;99.90;;;;;;2064890;28;20073;-69
2021/05/23 02:15:18;;;;;;;5.10;4.38;;;12.30;99.90;;;;;;2064721;28;20046;-69
2021/05/23 02:16:19;;;;;;;4.88;4.47;;;12.30;99.90;;;;;;2065143;28;20478;-69
2021/05/23 02:17:20;;;;;;;4.68;3.85;;;12.30;99.90;;;;;;2064825;28;20359;-69
2021/05/23 02:18:20;;;;;;;6.00;4.18;;;12.30;99.90;;;;;;2064993;28;20022;-69
2021/05/23 02:19:22;;;;;;;5.80;3.90;;;12.30;99.90;;;;;;2064189;28;20026;-69
2021/05/23 02:20:27;;;;;;;4.57;3.60;;;12.30;99.90;;;;;;2064633;28;20101;-69
2021/05/23 02:21:27;;;;;;;4.82;4.05;;;12.30;99.90;;;;;;2064625;28;20026;-69
2021/05/23 02:22:28;;;;;;;4.18;3.78;;;12.20;99.90;;;;;;2064130;28;20038;-69
2021/05/23 02:23:29;;;;;;;4.68;4.07;;;12.30;99.90;;;;;;2064623;28;20069;-69
2021/05/23 02:24:29;;;;;;;4.40;3.72;;;12.20;99.90;;;;;;2065103;28;20053;-69
2021/05/23 02:25:31;;;;;;;3.92;3.55;;;12.20;99.90;;;;;;2064783;28;20105;-69
2021/05/23 02:26:31;;;;;;;4.05;3.63;;;12.30;99.90;;;;;;2064983;28;20030;-69
2021/05/23 02:27:40;;;;;;;3.45;3.15;;;12.20;99.90;;;;;;2064666;28;20544;-69
2021/05/23 02:28:40;;;;;;;10.73;3.90;;;12.30;99.90;;;;;;2064970;28;20061;-69
2021/05/23 02:29:41;;;;;;;4.30;3.75;;;12.30;99.90;;;;;;2064690;28;20432;-69
2021/05/23 02:30:44;;;;;;;6.53;3.20;;;12.20;99.90;;;;;;2064948;28;20022;-69
2021/05/23 02:31:45;;;;;;;4.00;3.35;;;12.20;99.90;;;;;;2064775;28;20026;-69
2021/05/23 02:32:46;;;;;;;4.05;3.65;;;12.20;99.90;;;;;;2064170;28;20066;-69
2021/05/23 02:33:47;;;;;;;4.18;3.17;;;12.20;99.90;;;;;;2064584;28;20031;-69
2021/05/23 02:34:48;;;;;;;4.07;3.60;;;12.20;99.90;;;;;;2064908;28;20053;-69
2021/05/23 02:35:53;;;;;;;4.03;3.35;;;12.20;99.90;;;;;;2064421;28;20090;-69
2021/05/23 02:36:57;;;;;;;7.05;3.75;;;12.30;99.90;;;;;;2065181;28;20038;-69
2021/05/23 02:37:58;;;;;;;4.65;3.85;;;12.30;99.90;;;;;;2064432;28;20030;-69
2021/05/23 02:38:58;;;;;;;5.88;3.95;;;12.30;99.90;;;;;;2064973;28;20033;-69
2021/05/23 02:40:20;;;;;;;6.00;4.40;;;12.30;99.90;;;;;;2064775;28;20097;-69
2021/05/23 02:41:21;;;;;;;5.35;4.10;;;12.20;99.90;;;;;;2065037;28;20018;-69
2021/05/23 02:42:22;;;;;;;4.53;3.97;;;12.20;99.90;;;;;;2063990;28;20085;-69
2021/05/23 02:43:23;;;;;;;5.78;4.30;;;12.20;99.90;;;;;;2064915;28;20026;-69
2021/05/23 02:44:24;;;;;;;5.53;4.80;;;12.20;99.90;;;;;;2064558;28;20033;-69
2021/05/23 02:45:25;;;;;;;6.10;4.65;;;12.20;99.90;;;;;;2064909;28;20033;-69
2021/05/23 02:46:26;;;;;;;4.95;4.45;;;12.20;99.90;;;;;;2064512;28;20030;-69
2021/05/23 02:47:27;;;;;;;5.88;4.45;;;12.20;99.90;;;;;;2064832;28;20050;-69
2021/05/23 02:48:27;;;;;;;5.55;4.05;;;12.20;99.90;;;;;;2064205;28;20029;-69
2021/05/23 02:49:28;;;;;;;5.65;4.47;;;12.20;99.90;;;;;;2064811;28;20027;-69
2021/05/23 02:50:32;;;;;;;4.72;3.58;;;12.20;99.90;;;;;;2064526;28;20023;-68
2021/05/23 02:51:32;;;;;;;4.38;3.80;;;12.20;99.90;;;;;;2064781;28;20105;-68
2021/05/23 02:52:33;;;;;;;4.95;3.80;;;12.20;99.90;;;;;;2064088;28;20076;-69
2021/05/23 02:53:33;;;;;;;4.50;4.10;;;12.20;99.90;;;;;;2064619;28;20069;-69
2021/05/23 02:54:34;;;;;;;4.78;4.30;;;12.20;99.90;;;;;;2064486;28;20088;-69
2021/05/23 02:55:41;;;;;;;4.32;3.90;;;12.20;99.90;;;;;;2064598;28;20084;-69
2021/05/23 02:56:41;;;;;;;4.18;3.78;;;12.20;99.90;;;;;;2064591;28;20026;-69
2021/05/23 02:57:43;;;;;;;6.68;3.80;;;12.20;99.90;;;;;;2064624;28;20029;-69
2021/05/23 02:58:43;;;;;;;4.70;3.88;;;12.20;99.90;;;;;;2064255;28;20085;-69
2021/05/23 02:59:44;;;;;;;8.93;4.10;;;12.20;99.90;;;;;;2064748;28;20097;-69
2021/05/23 03:00:45;;;;;;;5.53;4.13;;;12.20;99.90;;;;;;2064652;28;20018;-69
2021/05/23 03:01:46;;;;;;;4.47;4.05;;;12.20;99.90;;;;;;2063691;28;20434;-69
2021/05/23 03:02:48;;;;;;;5.65;3.55;;;12.20;99.90;;;;;;2062875;28;20169;-69
2021/05/23 03:03:48;;;;;;;4.85;4.45;;;12.20;99.90;;;;;;2063439;28;20033;-69
2021/05/23 03:04:50;;;;;;;5.25;4.22;;;12.20;99.90;;;;;;2063755;28;20453;-69
2021/05/23 03:05:50;;;;;;;5.07;4.43;;;12.20;99.90;;;;;;2063998;28;20023;-69
2021/05/23 03:06:51;;;;;;;5.10;4.60;;;12.20;99.90;;;;;;2063562;28;20467;-69
2021/05/23 03:07:53;;;;;;;6.45;4.45;;;12.20;99.90;;;;;;2062719;28;20508;-69
2021/05/23 03:08:54;;;;;;;6.30;4.75;;;12.20;99.90;;;;;;2063282;28;20054;-69
2021/05/23 03:09:55;;;;;;;5.50;4.80;;;12.20;99.90;;;;;;2063433;28;20038;-69
2021/05/23 03:10:55;;;;;;;5.35;4.85;;;12.20;99.90;;;;;;2063204;28;20026;-69
2021/05/23 03:11:56;;;;;;;6.50;5.05;;;12.20;99.90;;;;;;2062755;28;20023;-69
2021/05/23 03:12:57;;;;;;;7.65;4.93;;;12.20;99.90;;;;;;2062484;28;20505;-69
2021/05/23 03:13:57;;;;;;;5.40;4.90;;;12.20;99.90;;;;;;2062811;28;20478;-69
2021/05/23 03:14:58;;;;;;;7.60;5.70;;;12.20;99.90;;;;;;2063285;28;20168;-69
2021/05/23 03:15:59;;;;;;;8.52;5.22;;;12.30;99.90;;;;;;2062987;28;20029;-68
2021/05/23 03:16:59;;;;;;;6.60;5.32;;;12.20;99.90;;;;;;2063497;28;20025;-68
2021/05/23 03:18:02;;;;;;;6.38;5.25;;;12.20;99.90;;;;;;2063083;28;20030;-68
2021/05/23 03:19:03;;;;;;;6.13;5.47;;;12.30;99.90;;;;;;2063267;28;20048;-68
2021/05/23 03:20:07;;;;;;;6.95;5.18;;;12.30;99.90;;;;;;2062594;28;20026;-68
2021/05/23 03:21:07;;;;;;;6.07;5.50;;;12.30;99.90;;;;;;2063342;28;20390;-69
2021/05/23 03:22:08;;;;;;;7.60;5.80;;;12.30;99.90;;;;;;2062488;28;20030;-68
2021/05/23 03:23:09;;;;;;;6.30;5.70;;;12.30;99.90;;;;;;2063488;28;20073;-68
2021/05/23 03:24:10;;;;;;;7.32;5.75;;;12.30;99.90;;;;;;2062885;28;20443;-68
2021/05/23 03:25:15;;;;;;;7.28;6.30;;;12.30;99.90;;;;;;2063222;28;20022;-68
2021/05/23 03:26:15;;;;;;;7.22;6.53;;;12.30;99.90;;;;;;2063108;28;20018;-68
2021/05/23 03:27:16;;;;;;;6.82;6.18;;;12.20;99.90;;;;;;2063075;28;20020;-68
2021/05/23 03:28:17;;;;;;;6.65;6.05;;;12.20;99.90;;;;;;2062974;28;20349;-69
2021/05/23 03:29:18;;;;;;;6.38;5.78;;;12.20;99.90;;;;;;2063070;28;20034;-69
2021/05/23 03:30:22;;;;;;;7.18;6.45;;;12.20;99.90;;;;;;2063031;28;20034;-69
2021/05/23 03:31:23;;;;;;;8.02;6.72;;;12.30;99.90;;;;;;2063159;28;20110;-69
2021/05/23 03:32:24;;;;;;;7.15;6.45;;;12.20;99.90;;;;;;2062203;28;20027;-69
2021/05/23 03:33:25;;;;;;;7.07;6.22;;;12.20;99.90;;;;;;2063537;28;20026;-69
2021/05/23 03:34:25;;;;;;;7.53;6.90;;;12.20;99.90;;;;;;2061913;28;20026;-69
2021/05/23 03:35:26;;;;;;;8.38;7.18;;;12.20;99.90;;;;;;2062566;28;20397;-69
2021/05/23 03:36:27;;;;;;;8.18;7.35;;;12.20;99.90;;;;;;2062958;28;20093;-68
2021/05/23 03:37:27;;;;;;;8.23;7.53;;;12.20;99.90;;;;;;2063067;28;20367;-68
2021/05/23 03:38:28;;;;;;;8.48;7.78;;;12.20;99.90;;;;;;2062910;28;20027;-68
2021/05/23 03:39:28;;;;;;;9.18;7.22;;;12.20;99.90;;;;;;2063186;28;20076;-69
2021/05/23 03:40:35;;;;;;;8.63;7.82;;;12.10;99.90;;;;;;2062665;28;20053;-69
2021/05/23 03:41:36;;;;;;;9.13;8.23;;;12.10;99.90;;;;;;2063346;28;20041;-69
2021/05/23 03:42:37;;;;;;;8.95;7.82;;;12.20;99.90;;;;;;2062237;28;20037;-68
2021/05/23 03:43:38;;;;;;;9.05;8.15;;;12.20;99.90;;;;;;2063203;28;20034;-69
2021/05/23 03:44:38;;;;;;;10.60;8.43;;;12.20;99.90;;;;;;2062685;28;20462;-69
2021/05/23 03:45:39;;;;;;;9.60;8.55;;;12.20;99.90;;;;;;2063002;28;20108;-69
2021/05/23 03:46:39;;;;;;;8.55;7.75;;;12.20;99.90;;;;;;2063012;28;20065;-69
2021/05/23 03:47:40;;;;;;;9.82;8.93;;;12.20;99.90;;;;;;2062823;28;20022;-69
2021/05/23 03:48:40;;;;;;;10.10;9.10;;;12.20;99.90;;;;;;2062384;28;20393;-69
2021/05/23 03:49:41;;;;;;;9.75;8.85;;;12.20;99.90;;;;;;2063014;28;20112;-69
2021/05/23 03:50:42;;;;;;;9.40;8.60;;;12.20;99.90;;;;;;2063085;28;20461;-69
2021/05/23 03:51:45;;;;;;;9.68;8.77;;;12.20;99.90;;;;;;2063295;28;20102;-69
2021/05/23 03:52:47;;;;;;;9.15;8.38;;;12.20;99.90;;;;;;2062259;28;20757;-69
2021/05/23 03:53:47;;;;;;;9.55;8.82;;;12.20;99.90;;;;;;2063112;28;20081;-69
2021/05/23 03:54:48;;;;;;;10.98;9.98;;;12.30;99.90;;;;;;2062962;28;20059;-69
2021/05/23 03:55:49;;;;;;;11.07;10.07;;;12.30;99.90;;;;;;2062921;28;20480;-69
2021/05/23 03:56:50;;;;;;;11.77;10.30;;;12.20;99.90;;;;;;2062667;28;20117;-69
2021/05/23 03:57:50;;;;;;;10.95;10.05;;;12.30;99.90;;;;;;2063009;28;20030;-69
2021/05/23 03:58:51;;;;;;;10.93;9.98;;;12.20;99.90;;;;;;2062859;28;20475;-69
2021/05/23 03:59:52;;;;;;;9.55;8.77;;;12.20;99.90;;;;;;2062229;28;20394;-69
2021/05/23 04:00:52;;;;;;;11.75;9.82;;;12.20;99.90;;;;;;2062295;28;20019;-69
2021/05/23 04:01:53;;;;;;;11.18;10.32;;;12.20;99.90;;;;;;2063003;28;20065;-69
2021/05/23 04:02:56;;;;;;;10.98;9.98;;;12.20;99.90;;;;;;2062565;28;20422;-69
2021/05/23 04:03:59;;;;;;;11.20;10.30;;;12.20;99.90;;;;;;2062584;28;20026;-69
2021/05/23 04:05:00;;;;;;;12.02;10.85;;;12.20;99.90;;;;;;2063101;28;20378;-69
2021/05/23 04:06:00;;;;;;;10.82;9.88;;;12.20;99.90;;;;;;2062981;28;20026;-69
2021/05/23 04:07:01;;;;;;;12.05;11.00;;;12.30;99.90;;;;;;2062966;28;20045;-69
2021/05/23 04:08:03;;;;;;;12.40;10.95;;;12.30;99.90;;;;;;2062893;28;20026;-69
2021/05/23 04:09:04;;;;;;;11.98;10.88;;;12.30;99.90;;;;;;2062910;28;20022;-69
2021/05/23 04:10:06;;;;;;;11.88;10.85;;;12.20;99.90;;;;;;2062607;28;20022;-69
2021/05/23 04:11:13;;;;;;;10.27;9.25;;;12.30;99.90;;;;;;2063023;28;20041;-69
2021/05/23 04:12:19;;;;;;;11.50;10.40;;;12.20;99.90;;;;;;2062119;28;20108;-69
2021/05/23 04:13:22;;;;;;;10.82;9.82;;;12.20;99.90;;;;;;2063046;28;20026;-69
2021/05/23 04:14:22;;;;;;;11.63;10.63;;;12.20;99.90;;;;;;2062751;28;20620;-69
2021/05/23 04:15:23;;;;;;;11.20;10.15;;;12.20;99.90;;;;;;2062962;28;20026;-68
2021/05/23 04:16:24;;;;;;;11.70;10.80;;;12.20;99.90;;;;;;2062785;28;20022;-69
2021/05/23 04:17:27;;;;;;;12.30;11.23;;;12.20;99.90;;;;;;2063124;28;20299;-69
2021/05/23 04:18:27;;;;;;;11.20;10.20;;;12.30;99.90;;;;;;2062712;28;20503;-69
2021/05/23 04:19:28;;;;;;;11.85;10.75;;;12.20;99.90;;;;;;2063497;28;20445;-69
2021/05/23 04:20:29;;;;;;;11.68;10.60;;;12.30;99.90;;;;;;2064426;28;20026;-69
2021/05/23 04:21:29;;;;;;;13.48;12.27;;;12.30;99.90;;;;;;2064531;28;20034;-69
2021/05/23 04:22:30;;;;;;;13.05;11.77;;;12.30;99.90;;;;;;2064020;28;20042;-69
2021/05/23 04:23:31;;;;;;;13.55;12.23;;;12.30;99.90;;;;;;2064728;28;20117;-69
2021/05/23 04:24:35;;;;;;;12.85;11.82;;;12.30;99.90;;;;;;2064343;28;20027;-69
2021/05/23 04:25:36;;;;;;;12.60;11.43;;;12.30;99.90;;;;;;2064529;28;20463;-69
2021/05/23 04:26:36;;;;;;;12.30;11.30;;;12.30;99.90;;;;;;2064224;28;20386;-69
2021/05/23 04:27:37;;;;;;;12.95;11.75;;;12.30;99.90;;;;;;2064532;28;20488;-69
2021/05/23 04:28:38;;;;;;;13.38;12.20;;;12.30;99.90;;;;;;2064097;28;20371;-69
2021/05/23 04:29:39;;;;;;;13.30;12.00;;;12.30;99.90;;;;;;2064505;28;20026;-69
2021/05/23 04:30:39;;;;;;;13.30;12.10;;;12.40;99.90;;;;;;2071466;28;20072;-69
2021/05/23 04:31:40;;;;;;;14.35;12.95;;;12.30;99.90;;;;;;2072139;28;20484;-69
2021/05/23 04:32:40;;;;;;;14.82;13.52;;;12.30;99.90;;;;;;2063722;28;20049;-69
2021/05/23 04:33:41;;;;;;;14.10;12.80;;;12.30;99.90;;;;;;2065014;28;20034;-69
2021/05/23 04:34:41;;;;;;;15.05;13.68;;;12.40;99.90;;;;;;2063944;28;20034;-68
2021/05/23 04:35:44;;;;;;;12.98;11.68;;;12.40;99.90;;;;;;2064528;28;20061;-68
2021/05/23 04:36:44;;;;;;;13.50;12.23;;;12.40;99.90;;;;;;2063838;28;20057;-69
2021/05/23 04:37:45;;;;;;;14.32;12.95;;;12.40;99.90;;;;;;2064459;28;20029;-69
2021/05/23 04:38:48;;;;;;;13.48;12.20;;;12.40;99.90;;;;;;2064165;28;20053;-68
2021/05/23 04:39:49;;;;;;;14.65;13.35;;;12.40;99.90;;;;;;2064601;28;20041;-69
2021/05/23 04:40:49;;;;;;;14.02;12.80;;;12.50;99.90;;;;;;2064276;28;20031;-69
2021/05/23 04:41:50;;;;;;;13.30;12.20;;;12.40;99.90;;;;;;2064654;28;20022;-69
2021/05/23 04:42:50;;;;;;;13.65;12.27;;;12.40;99.90;;;;;;2063518;28;20117;-68
2021/05/23 04:43:51;;;;;;;13.13;11.95;;;12.40;99.90;;;;;;2064492;28;20490;-68
2021/05/23 04:44:51;;;;;;;13.75;12.45;;;12.50;99.90;;;;;;2064153;28;20030;-69
2021/05/23 04:45:52;;;;;;;13.90;11.85;;;12.50;99.90;;;;;;2064223;28;20022;-68
2021/05/23 04:46:53;;;;;;;14.00;12.80;;;12.50;99.90;;;;;;2064149;28;20042;-69
2021/05/23 04:47:53;;;;;;;13.57;12.30;;;12.40;99.90;;;;;;2064216;28;20409;-69
2021/05/23 04:48:54;;;;;;;14.60;13.20;;;12.50;99.90;;;;;;2063960;28;20053;-69
2021/05/23 04:49:54;;;;;;;14.20;12.93;;;12.50;99.90;;;;;;2064467;28;20055;-69
2021/05/23 04:50:55;;;;;;;14.10;12.90;;;12.50;99.90;;;;;;2063949;28;20069;-68
2021/05/23 04:51:56;;;;;;;14.65;13.25;;;12.50;99.90;;;;;;2064470;28;20050;-68
2021/05/23 04:52:57;;;;;;;14.73;13.43;;;12.40;99.90;;;;;;2063621;28;20518;-68
2021/05/23 04:53:57;;;;;;;16.33;13.85;;;12.40;99.90;;;;;;2063998;28;20046;-68
2021/05/23 04:54:58;;;;;;;14.07;12.90;;;12.40;99.90;;;;;;2064468;28;20117;-69
2021/05/23 04:55:59;;;;;;;15.40;13.88;;;12.40;99.90;;;;;;2063995;28;20021;-69
2021/05/23 04:56:59;;;;;;;15.15;13.77;;;12.40;99.90;;;;;;2064423;28;20455;-68
2021/05/23 04:58:00;;;;;;;13.98;12.77;;;12.50;99.90;;;;;;2063352;28;20070;-68
2021/05/23 04:59:00;;;;;;;14.40;13.20;;;12.50;99.90;;;;;;2063493;28;20137;-68
2021/05/23 05:00:03;;;;;;;13.23;12.02;;;12.50;99.90;;;;;;2071417;28;20120;-69
2021/05/23 05:01:03;;;;;;;14.65;13.35;;;12.50;99.90;;;;;;2064209;28;20026;-69
2021/05/23 05:02:04;;;;;;;14.32;13.02;;;12.50;99.90;;;;;;2064490;28;20030;-68
2021/05/23 05:03:05;;;;;;;15.20;13.80;;;12.40;99.90;;;;;;2063462;28;20046;-68
2021/05/23 05:04:05;;;;;;;15.23;13.93;;;12.50;99.90;;;;;;2064078;28;20022;-68
2021/05/23 05:05:08;;;;;;;15.30;14.05;;;12.40;99.90;;;;;;2064190;28;20026;-68
2021/05/23 05:06:08;;;;;;;14.73;13.45;;;12.40;99.90;;;;;;2063867;28;20022;-69
2021/05/23 05:07:09;;;;;;;15.48;14.10;;;12.50;99.90;;;;;;2064356;28;20057;-68
2021/05/23 05:08:09;;;;;;;14.02;12.88;;;12.50;99.90;;;;;;2063888;28;20537;-68
2021/05/23 05:09:10;;;;;;;15.55;14.25;;;12.50;99.90;;;;;;2064017;28;20035;-68
2021/05/23 05:10:11;;;;;;;15.23;13.65;;;12.50;99.90;;;;;;2063930;28;20473;-68
2021/05/23 05:11:12;;;;;;;15.30;13.75;;;12.50;99.90;;;;;;2063985;28;20026;-68
2021/05/23 05:12:13;;;;;;;16.52;14.88;;;12.50;99.90;;;;;;2063740;28;20096;-68
2021/05/23 05:13:14;;;;;;;15.50;14.13;;;12.50;99.90;;;;;;2064240;28;20108;-69
2021/05/23 05:14:14;;;;;;;14.98;13.57;;;12.50;99.90;;;;;;2063855;28;20023;-69
2021/05/23 05:15:15;;;;;;;16.30;13.85;;;12.50;99.90;;;;;;2064185;28;20041;-69
2021/05/23 05:16:15;;;;;;;14.38;13.02;;;12.50;99.90;;;;;;2063659;28;20026;-68
2021/05/23 05:17:16;;;;;;;15.38;13.95;;;12.50;99.90;;;;;;2064069;28;20467;-68
2021/05/23 05:18:16;;;;;;;15.43;14.05;;;12.50;99.90;;;;;;2063116;28;20113;-68
2021/05/23 05:19:17;;;;;;;14.88;13.50;;;12.60;99.90;;;;;;2063591;28;20026;-69
2021/05/23 05:20:18;;;;;;;13.70;12.50;;;12.60;99.90;;;;;;2064061;28;20027;-68